Ride Results

Scenic City-Canberra (21-11-2015)
Ride distance: 80.0 km

Outcomes - Scenic City-Canberra (21-11-2015)
Division No. of Entries Retired / DNE Completed Withdrawn Ineligible V/O Percentage Completed
HW 6 - 3 2 - 1 50.00%
MW 20 - 15 3 - 2 75.00%
LW 16 - 10 - - 6 62.50%
JN 7 - 7 - - - 100.00%
Totals 49 - 35 5 - 9 71.43%
Results - Scenic City-Canberra (21-11-2015)
No. Rider Horse Place Time Leg Speeds Total
Km/Hr
H/R bpm
Heavyweight
69 Gavin Peacock Chop Chop 1 5:04:47 15.6, 15.9 15.75 33, 39, 42 (Avg:40)
27 Robert Catlin Copperkahn Tiara 2 (BC) 5:18:42 14.7, 15.5 15.06 38, 42, 44 (Avg:43)
25 Stuart Lymbery Aloha Desert Glitter 3 8:10:18 10.4, 8.9 9.79 34, 36, 36 (Avg:36)
23 Graeme Corin Garonne Park Mission Lame L1 0:00:00 13.1 - 41, 48 (Avg:48)
38 Marty Moran Ralph Lauren Withdrawn L1 0:00:00 - - 49, 48 (Avg:48)
3 Scott Peters Askari's Harmony Withdrawn L1 0:00:00 - - 44, 48 (Avg:48)
Middleweight
86 Talea Hasko-Stewart Blake's Heaven Bombora 1 5:02:12 15.9, 15.8 15.88 38, 41, 45 (Avg:43)
12 Amanda Kettlewell Oso Lorikeet 1 (BC) 5:02:12 15.9, 15.7 15.88 33, 44, 42 (Avg:43)
65 Anita Ashby Lentara Park Heather 3 5:04:02 15.9, 15.5 15.79 44, 40, 47 (Avg:43)
26 Clare Feary Die Kinder Junrei 4 5:18:39 14.7, 15.4 15.06 39, 40, 47 (Avg:43)
60 Jane McLaughlin Elphyn Shafyre 5 6:13:53 13.9, 11.4 12.84 30, 38, 47 (Avg:42)
37 Cathy Walton Amurath Kei 6 6:25:37 13.1, 11.5 12.45 40, 48, 52 (Avg:50)
1 Jason Rathbone Blake's Heaven Dawn Treader 7 6:41:28 12.3, 11.4 11.96 36, 50, 45 (Avg:47)
67 Francesca Green Autumnight Bold as Brass 8 6:47:37 12.7, 10.6 11.78 32, 46, 53 (Avg:49)
18 Noni Seagrim Eminem Vyper 9 7:15:32 11.2, 10.7 11.02 39, 42, 53 (Avg:47)
19 Mitchell Ravallion Coolinda Park Frezja 10 7:15:35 11.2, 10.7 11.02 32, 48, 43 (Avg:45)
63 Carol Major Anijoa Anna 11 7:16:16 12.2, 9.5 11.00 28, 38, 41 (Avg:39)
6 Louise McCormack Kintamani Silver Eclipse 12 7:19:23 11.9, 9.6 10.92 41, 40, 41 (Avg:40)
62 Gail Pound P.F. Kudamoon 13 7:19:30 11.9, 9.6 10.92 38, 50, 37 (Avg:43)
24 Anne Lymbery Mountain Ash Pale Moon 14 8:10:22 10.4, 8.9 9.79 34, 43, 38 (Avg:40)
39 Bev Turner Jelignite Jack 15 8:29:16 9.5, 9.1 9.43 32, 47, 54 (Avg:50)
84 Mark Broadbent Saharan Hadrian Lame L2 0:00:00 9.6, 8.2 - 40, 35, 49 (Avg:42)
85 Rebecca Lees Dara Park Shakid Withdrawn L2 0:00:00 - - 34, 35, 45 (Avg:40)
76 Kayte Barnard FC Bejing Withdrawn L1 0:00:00 - - 33, 46 (Avg:46)
13 Katrina Newitt Blake's Heaven Summer Reign Lame L1 0:00:00 12.3 - 34, 41 (Avg:41)
5 Tegan Symington Dashanda Serene Withdrawn L1 0:00:00 - - 28, 40 (Avg:40)
Lightweight
11 Bec Radny Al Marah Heyho Silver 1 5:02:12 16.0, 15.6 15.88 44, 53, 54 (Avg:53)
88 Kristie Wright Blake's Heaven Carousel 1 (BC) 5:02:12 15.9, 15.8 15.88 36, 38, 46 (Avg:42)
7 Sarah McLaughlin Tonki Dee Boo Shania 3 6:13:48 13.9, 11.4 12.84 37, 45, 40 (Avg:42)
10 Sorsha Stuart-Rokvic Oso Emelyne 4 6:25:33 13.3, 11.2 12.45 36, 46, 51 (Avg:48)
34 Louise Stevens Baranne Tu-Shay 5 6:40:52 12.7, 11.0 11.97 36, 40, 53 (Avg:46)
64 Sue Todd Shakari Bear 6 7:16:17 12.2, 9.5 11.00 43, 48, 52 (Avg:50)
77 Mary Hollingsworth Sandine Wicked 7 8:08:13 10.7, 8.6 9.83 56, 42, 47 (Avg:44)
78 Christal Rizk Henley Farm Farhan 8 8:08:15 10.8, 8.6 9.83 36, 48, 56 (Avg:52)
28 Meri Lategan Malvern Lady Clara 9 8:49:57 9.0, 9.0 9.06 38, 42, 52 (Avg:47)
72 Kerry Alderton Jullyiss 10 8:51:22 9.0, 9.0 9.03 37, 47, 52 (Avg:49)
20 Monica Ballard Wantley Kaliph Lame L2 0:00:00 12.3, 11.4 - 33, 34, 38 (Avg:36)
68 Vetea Facchini Love In The Mist Lame L2 0:00:00 10.5, 9.9 - 42, 40, 52 (Avg:46)
29 April Newman Tarnette Lame L2 0:00:00 14.3, 12.1 - 34, 35, 39 (Avg:37)
2 Jayne Rathbone Blake's Heaven Venus Lame L2 0:00:00 12.3, 12.1 - 47, 44, 42 (Avg:43)
74 Morgan Carolan Henley Farm Jidal Lame L1 0:00:00 10.7 - 53, 44 (Avg:44)
75 Melanie Whiteley Henley Farm Waffar Lame L1 0:00:00 10.8 - 33, 36 (Avg:36)
Junior
82 Celia Hodgson Brookleigh Shiralee 1 (BC) 5:04:17 15.9, 15.5 15.77 36, 44, 43 (Avg:43)
32 Gabrielle Worth Douglas 2 5:18:47 15.9, 13.8 15.06 31, 49, 60 (Avg:54)
33 Tahlia Franke Star Cross Imperial 3 5:58:00 14.3, 12.1 13.41 39, 49, 53 (Avg:51)
9 Stacey Clarke Oso Bettina 4 6:25:30 13.3, 11.2 12.45 32, 45, 45 (Avg:45)
66 Laura Kelly Trigger 5 7:47:13 10.5, 9.8 10.27 34, 42, 48 (Avg:45)
73 Bonnie Player Avondale Dream On 6 8:51:30 9.0, 9.0 9.03 36, 48, 56 (Avg:52)
83 Thomas Reay Henley Farm Dawama 7 8:53:26 9.6, 8.2 9.00 36, 45, 43 (Avg:44)